Time,TemperatureF,DewpointF,PressureIn,WindDirection,WindDirectionDegrees,WindSpeedMPH,WindSpeedGustMPH,Humidity,HourlyPrecipIn,Conditions,Clouds,dailyrainin,SoftwareType,DateUTC
2013-06-25 00:11:00,49.0,49.0,-100.00,North,-999,-999.0,-999.0,99,-99.99,,,-99.99,,2013-06-25 07:11:00,
2013-06-25 00:22:00,49.0,49.0,-100.00,North,-999,-999.0,-999.0,99,-99.99,,,-99.99,,2013-06-25 07:22:00,
2013-06-25 00:43:00,49.0,49.0,-100.00,North,-999,-999.0,-999.0,99,-99.99,,,-99.99,,2013-06-25 07:43:00,
2013-06-25 00:52:00,50.0,50.0,-100.00,North,-999,-999.0,-999.0,99,-99.99,,,-99.99,,2013-06-25 07:52:00,
2013-06-25 01:11:00,50.0,50.0,-100.00,North,-999,-999.0,-999.0,99,-99.99,,,-99.99,,2013-06-25 08:11:00,
2013-06-25 01:21:00,50.0,50.0,-100.00,North,-999,-999.0,-999.0,99,-99.99,,,-99.99,,2013-06-25 08:21:00,
2013-06-25 01:33:00,50.0,50.0,-100.00,North,-999,-999.0,-999.0,99,-99.99,,,-99.99,,2013-06-25 08:33:00,
2013-06-25 01:53:00,50.0,50.0,-100.00,North,-999,-999.0,-999.0,99,-99.99,,,-99.99,,2013-06-25 08:53:00,
2013-06-25 02:02:00,-999.0,-99.9,-100.00,WSW,250,0.0,-999.0,-999,-99.99,,,-99.99,,2013-06-25 09:02:00,
2013-06-25 02:12:00,-999.0,-99.9,-100.00,WSW,250,0.0,-999.0,-999,-99.99,,,-99.99,,2013-06-25 09:12:00,
2013-06-25 02:22:00,-999.0,-99.9,-100.00,WSW,240,3.0,-999.0,-999,-99.99,,,-99.99,,2013-06-25 09:22:00,
2013-06-25 02:33:00,52.0,-99.9,-100.00,WSW,240,3.0,-999.0,99,-99.99,,,-99.99,,2013-06-25 09:33:00,
2013-06-25 02:43:00,-999.0,-99.9,-100.00,South,190,3.0,-999.0,799,-99.99,,,-99.99,,2013-06-25 09:43:00,
2013-06-25 02:53:00,52.0,-99.9,-100.00,North,-999,-999.0,-999.0,799,-99.99,,,-99.99,,2013-06-25 09:53:00,
2013-06-25 03:01:00,-999.0,-99.9,-100.00,SSW,200,6.0,-999.0,-999,-99.99,,,-99.99,,2013-06-25 10:01:00,
2013-06-25 03:11:00,-999.0,-99.9,-100.00,SSW,200,6.0,-999.0,99,-99.99,,,-99.99,,2013-06-25 10:11:00,
2013-06-25 03:22:00,-999.0,-99.9,-100.00,South,190,6.0,-999.0,-999,-99.99,,,-99.99,,2013-06-25 10:22:00,
2013-06-25 03:33:00,-999.0,-99.9,-100.00,SSW,210,5.0,-999.0,-999,-99.99,,,-99.99,,2013-06-25 10:33:00,
2013-06-25 04:21:00,50.0,50.0,-100.00,North,-999,-999.0,-999.0,99,-99.99,,,-99.99,,2013-06-25 11:21:00,
2013-06-25 04:34:00,50.0,50.0,-100.00,North,-999,-999.0,-999.0,99,-99.99,,,-99.99,,2013-06-25 11:34:00,
2013-06-25 04:43:00,50.0,50.0,-100.00,North,-999,-999.0,-999.0,99,-99.99,,,-99.99,,2013-06-25 11:43:00,
2013-06-25 05:02:00,50.0,-99.9,-100.00,SSW,210,4.0,-999.0,99,-99.99,,,-99.99,,2013-06-25 12:02:00,
2013-06-25 05:11:00,50.0,50.0,-100.00,North,-999,-999.0,-999.0,99,-99.99,,,-99.99,,2013-06-25 12:11:00,
2013-06-25 05:22:00,50.0,50.0,-100.00,North,-999,-999.0,-999.0,99,-99.99,,,-99.99,,2013-06-25 12:22:00,
2013-06-25 05:33:00,50.0,50.0,-100.00,North,-999,-999.0,-999.0,99,-99.99,,,-99.99,,2013-06-25 12:33:00,
2013-06-25 06:22:00,50.0,-99.9,-100.00,North,-999,-999.0,-999.0,99,-99.99,,,-99.99,,2013-06-25 13:22:00,
2013-06-25 06:34:00,50.0,-99.9,-100.00,North,-999,-999.0,-999.0,99,-99.99,,,-99.99,,2013-06-25 13:34:00,
2013-06-25 06:53:00,50.0,50.0,-100.00,North,-999,-999.0,-999.0,99,-99.99,,,-99.99,,2013-06-25 13:53:00,
2013-06-25 07:01:00,50.0,50.0,-100.00,North,-999,-999.0,-999.0,99,-99.99,,,-99.99,,2013-06-25 14:01:00,
2013-06-25 07:11:00,50.0,50.0,-100.00,North,-999,-999.0,-999.0,99,-99.99,,,-99.99,,2013-06-25 14:11:00,
2013-06-25 07:23:00,50.0,-99.9,-100.00,North,-999,-999.0,-999.0,-999,-99.99,,,-99.99,,2013-06-25 14:23:00,
2013-06-25 07:34:00,-999.0,-99.9,-100.00,SW,220,0.0,-999.0,-999,-99.99,,,-99.99,,2013-06-25 14:34:00,
2013-06-25 07:43:00,-999.0,-99.9,-100.00,SW,220,0.0,-999.0,-999,-99.99,,,-99.99,,2013-06-25 14:43:00,
2013-06-25 07:53:00,-999.0,-99.9,-100.00,SSW,210,4.0,-999.0,-999,-99.99,,,-99.99,,2013-06-25 14:53:00,
2013-06-25 08:11:00,54.0,54.0,-100.00,North,-999,-999.0,-999.0,99,-99.99,,,-99.99,,2013-06-25 15:11:00,
2013-06-25 08:22:00,54.0,54.0,-100.00,North,-999,-999.0,-999.0,99,-99.99,,,-99.99,,2013-06-25 15:22:00,
2013-06-25 08:32:00,54.0,54.0,-100.00,North,-999,-999.0,-999.0,99,-99.99,,,-99.99,,2013-06-25 15:32:00,
2013-06-25 08:44:00,-999.0,-99.9,-100.00,SSW,210,6.0,-999.0,-999,-99.99,,,-99.99,,2013-06-25 15:44:00,
2013-06-25 08:53:00,55.0,55.0,-100.00,SW,220,6.0,-999.0,99,-99.99,,,-99.99,,2013-06-25 15:53:00,
2013-06-25 09:12:00,55.0,55.0,-100.00,North,-999,-999.0,-999.0,193,-99.99,,,-99.99,,2013-06-25 16:12:00,
2013-06-25 09:23:00,55.0,55.0,-100.00,SW,230,5.0,-999.0,99,-99.99,,,-99.99,,2013-06-25 16:23:00,
2013-06-25 09:34:00,55.0,55.0,-100.00,SW,220,7.0,-999.0,99,-99.99,,,-99.99,,2013-06-25 16:34:00,
2013-06-25 09:44:00,55.0,-99.9,-100.00,SW,220,5.0,-999.0,99,-99.99,,,-99.99,,2013-06-25 16:44:00,
2013-06-25 09:52:00,55.0,55.0,-100.00,North,-999,-999.0,-999.0,99,-99.99,,,-99.99,,2013-06-25 16:52:00,
2013-06-25 10:01:00,-999.0,-99.9,-100.00,South,190,6.0,-999.0,-999,-99.99,,,-99.99,,2013-06-25 17:01:00,
2013-06-25 10:11:00,57.0,-99.9,-100.00,North,-999,-999.0,-999.0,-999,-99.99,,,-99.99,,2013-06-25 17:11:00,
2013-06-25 10:53:00,-999.0,-99.9,-100.00,SW,220,6.0,-999.0,-999,-99.99,,,-99.99,,2013-06-25 17:53:00,
2013-06-25 11:02:00,-999.0,-99.9,-100.00,SSW,200,5.0,-999.0,-999,-99.99,,,-99.99,,2013-06-25 18:02:00,
2013-06-25 11:12:00,57.0,-99.9,-100.00,WSW,240,6.0,-999.0,-999,-99.99,,,-99.99,,2013-06-25 18:12:00,
2013-06-25 11:23:00,-999.0,-99.9,-100.00,SW,230,26.0,-999.0,-999,-99.99,,,-99.99,,2013-06-25 18:23:00,
2013-06-25 11:34:00,-999.0,-99.9,-100.00,SW,220,7.0,-999.0,-999,-99.99,,,-99.99,,2013-06-25 18:34:00,
2013-06-25 11:53:00,60.0,-99.9,-100.00,WSW,240,8.0,-999.0,-999,-99.99,,,-99.99,,2013-06-25 18:53:00,
2013-06-25 12:12:00,-999.0,-99.9,-100.00,SW,230,8.0,-999.0,-999,-99.99,,,-99.99,,2013-06-25 19:12:00,
2013-06-25 12:23:00,59.0,-99.9,-100.00,SSW,200,8.0,-999.0,-999,-99.99,,,-99.99,,2013-06-25 19:23:00,
2013-06-25 12:33:00,-999.0,-99.9,-100.00,South,190,9.0,-999.0,-999,-99.99,,,-99.99,,2013-06-25 19:33:00,
2013-06-25 12:44:00,56.0,56.0,-100.00,South,190,9.0,-999.0,99,-99.99,,,-99.99,,2013-06-25 19:44:00,
2013-06-25 13:11:00,58.0,-99.9,-100.00,NNE,30,85.0,-999.0,99,-99.99,,,-99.99,,2013-06-25 20:11:00,
2013-06-25 13:43:00,-999.0,-99.9,-100.00,South,190,9.0,-999.0,-999,-99.99,,,-99.99,,2013-06-25 20:43:00,
2013-06-25 13:52:00,-999.0,-99.9,-100.00,SW,230,11.0,-999.0,-999,-99.99,,,-99.99,,2013-06-25 20:52:00,
2013-06-25 14:02:00,-999.0,-99.9,-100.00,SSW,210,8.0,-999.0,-999,-99.99,,,-99.99,,2013-06-25 21:02:00,
2013-06-25 14:11:00,-999.0,-99.9,-100.00,SW,220,9.0,-999.0,-999,-99.99,,,-99.99,,2013-06-25 21:11:00,
2013-06-25 14:22:00,-999.0,-99.9,-100.00,SW,220,9.0,-999.0,-999,-99.99,,,-99.99,,2013-06-25 21:22:00,
2013-06-25 14:34:00,-999.0,-99.9,-100.00,SW,220,9.0,-999.0,-999,-99.99,,,-99.99,,2013-06-25 21:34:00,
2013-06-25 15:01:00,59.0,-99.9,-100.00,WSW,250,8.0,-999.0,98,-99.99,,,-99.99,,2013-06-25 22:01:00,
2013-06-25 15:11:00,-999.0,-99.9,-100.00,SW,220,9.0,-999.0,-999,-99.99,,,-99.99,,2013-06-25 22:11:00,
2013-06-25 15:22:00,-999.0,-99.9,-100.00,SW,230,8.0,-999.0,-999,-99.99,,,-99.99,,2013-06-25 22:22:00,
2013-06-25 15:52:00,-999.0,-99.9,-100.00,SSW,210,7.0,-999.0,-999,-99.99,,,-99.99,,2013-06-25 22:52:00,
2013-06-25 16:22:00,59.0,-99.9,-100.00,WSW,240,9.0,-999.0,-999,-99.99,,,-99.99,,2013-06-25 23:22:00,
2013-06-25 16:44:00,60.0,-99.9,-100.00,WSW,240,8.0,-999.0,-999,-99.99,,,-99.99,,2013-06-25 23:44:00,
2013-06-25 16:52:00,-999.0,-99.9,-100.00,SW,220,6.0,-999.0,-999,-99.99,,,-99.99,,2013-06-25 23:52:00,
2013-06-25 17:33:00,-999.0,-99.9,-100.00,SSW,210,7.0,-999.0,-999,-99.99,,,-99.99,,2013-06-26 00:33:00,
2013-06-25 17:42:00,-999.0,-99.9,-100.00,SW,230,7.0,-999.0,-999,-99.99,,,-99.99,,2013-06-26 00:42:00,
2013-06-25 18:01:00,-999.0,-99.9,-100.00,WSW,250,6.0,-999.0,98,-99.99,,,-99.99,,2013-06-26 01:01:00,
2013-06-25 18:11:00,-999.0,-99.9,-100.00,SW,230,6.0,-999.0,-999,-99.99,,,-99.99,,2013-06-26 01:11:00,
2013-06-25 18:33:00,-999.0,-99.9,-100.00,WSW,250,6.0,-999.0,-999,-99.99,,,-99.99,,2013-06-26 01:33:00,
2013-06-25 18:53:00,-999.0,-99.9,-100.00,WSW,250,4.0,-999.0,-999,-99.99,,,-99.99,,2013-06-26 01:53:00,
2013-06-25 19:22:00,-999.0,-99.9,-100.00,SW,230,5.0,-999.0,-999,-99.99,,,-99.99,,2013-06-26 02:22:00,
2013-06-25 19:34:00,-999.0,-99.9,-100.00,SW,230,5.0,-999.0,-999,-99.99,,,-99.99,,2013-06-26 02:34:00,
2013-06-25 19:44:00,-999.0,-99.9,-100.00,East,80,48.0,-999.0,-999,-99.99,,,-99.99,,2013-06-26 02:44:00,
2013-06-25 19:53:00,-999.0,-99.9,-100.00,SW,220,92.0,-999.0,-999,-99.99,,,-99.99,,2013-06-26 02:53:00,
2013-06-25 20:02:00,-999.0,-99.9,-100.00,SW,220,92.0,-999.0,-999,-99.99,,,-99.99,,2013-06-26 03:02:00,
2013-06-25 21:02:00,57.0,-99.9,-100.00,WSW,250,4.0,-999.0,-999,-99.99,,,-99.99,,2013-06-26 04:02:00,
2013-06-25 22:43:00,54.0,54.0,-100.00,North,-999,-999.0,-999.0,99,-99.99,,,-99.99,,2013-06-26 05:43:00,
2013-06-25 22:52:00,54.0,54.0,-100.00,North,-999,-999.0,-999.0,99,-99.99,,,-99.99,,2013-06-26 05:52:00,
2013-06-25 23:01:00,54.0,54.0,-100.00,North,-999,-999.0,-999.0,99,-99.99,,,-99.99,,2013-06-26 06:01:00,
2013-06-25 23:11:00,53.0,53.0,-100.00,North,-999,-999.0,-999.0,99,-99.99,,,-99.99,,2013-06-26 06:11:00,
2013-06-25 23:22:00,52.0,52.0,-100.00,North,-999,-999.0,-999.0,99,-99.99,,,-99.99,,2013-06-26 06:22:00,
2013-06-25 23:34:00,52.0,52.0,-100.00,North,-999,-999.0,-999.0,99,-99.99,,,-99.99,,2013-06-26 06:34:00,
2013-06-25 23:43:00,52.0,52.0,-100.00,North,-999,-999.0,-999.0,99,-99.99,,,-99.99,,2013-06-26 06:43:00,
2013-06-25 23:53:00,51.0,51.0,-100.00,North,-999,-999.0,-999.0,99,-99.99,,,-99.99,,2013-06-26 06:53:00,